Terminal Aerodrome Forecast
Issued by NWS

Home | Current Version | Previous Version | Text Only | Print | Product List | Glossary On
Versions: 1 2 3 4 5 6 7 8 9 10 11 12 13 14 15 16 17 18 19 20 21 22
000
FTUS43 KDVN 222300
TAFBRL
TAF
KBRL 222332Z 2300/2324 20005KT P6SM SCT030
     FM230300 VRB02KT 6SM BR BKN060
     FM230600 VRB03KT 5SM -SHRA BR VCTS BKN035CB
     FM230800 VRB03KT 2SM TSRA BR OVC035CB
     FM231500 15005KT 6SM BR BKN040=

USA.gov is the U.S. government's official web portal to all federal, state and local government web resources and services.